createdAt,value
2022-10-12T00:02:14.843Z,8.20
2022-10-12T00:04:41.905Z,7.38
2022-10-12T00:07:09.112Z,8.65
2022-10-12T00:09:36.087Z,8.23
2022-10-12T00:12:03.103Z,8.05
2022-10-12T00:14:30.097Z,8.15
2022-10-12T00:16:57.129Z,6.75
2022-10-12T00:19:24.028Z,8.18
2022-10-12T00:21:50.960Z,7.75
2022-10-12T00:24:18.091Z,8.15
2022-10-12T00:26:45.046Z,7.88
2022-10-12T00:29:12.077Z,8.10
2022-10-12T00:31:39.065Z,8.07
2022-10-12T00:34:06.025Z,8.25
2022-10-12T00:36:35.913Z,7.82
2022-10-12T00:39:05.946Z,7.55
2022-10-12T00:41:40.830Z,7.45
2022-10-12T00:44:41.979Z,8.20
2022-10-12T00:47:37.044Z,8.30
2022-10-12T00:50:16.348Z,7.32
2022-10-12T00:52:55.885Z,7.70
2022-10-12T00:55:25.630Z,7.88
2022-10-12T00:57:54.155Z,7.63
2022-10-12T01:00:22.930Z,7.80
2022-10-12T01:02:53.464Z,7.13
2022-10-12T01:05:21.287Z,7.97
2022-10-12T01:07:48.472Z,7.80
2022-10-12T01:10:15.697Z,7.80
2022-10-12T01:12:44.657Z,7.53
2022-10-12T01:15:13.830Z,7.82
2022-10-12T01:17:51.965Z,7.18
2022-10-12T01:20:46.970Z,7.25
2022-10-12T01:23:28.679Z,7.40
2022-10-12T01:26:14.182Z,6.20
2022-10-12T01:28:41.155Z,7.35
2022-10-12T01:31:36.124Z,7.18
2022-10-12T01:34:11.868Z,7.60
2022-10-12T01:36:47.719Z,6.35
2022-10-12T01:39:37.633Z,7.25
2022-10-12T01:42:10.959Z,6.53
2022-10-12T01:44:42.031Z,7.28
2022-10-12T01:47:10.106Z,6.78
2022-10-12T01:49:38.289Z,6.90
2022-10-12T01:52:19.611Z,7.15
2022-10-12T01:54:52.388Z,6.68
2022-10-12T01:57:45.725Z,6.10
2022-10-12T02:00:15.832Z,6.25
2022-10-12T02:03:01.242Z,6.45
2022-10-12T02:05:37.179Z,7.05
2022-10-12T02:08:22.052Z,6.53
2022-10-12T02:11:02.285Z,5.90
2022-10-12T02:13:34.095Z,6.57
2022-10-12T02:16:04.153Z,6.10
2022-10-12T02:18:33.454Z,6.20
2022-10-12T02:21:01.338Z,6.72
2022-10-12T02:23:29.617Z,5.93
2022-10-12T02:25:58.405Z,6.20
2022-10-12T02:28:28.759Z,5.78
2022-10-12T02:31:16.055Z,5.10
2022-10-12T02:33:56.829Z,6.32
2022-10-12T02:36:36.812Z,6.00
2022-10-12T02:39:11.571Z,5.93
2022-10-12T02:41:46.319Z,5.40
2022-10-12T02:44:19.684Z,6.00
2022-10-12T02:46:49.633Z,4.80
2022-10-12T02:49:18.996Z,6.00
2022-10-12T02:51:47.195Z,5.88
2022-10-12T02:54:15.240Z,5.40
2022-10-12T02:56:47.374Z,5.70
2022-10-12T02:59:16.528Z,5.65
2022-10-12T03:01:44.018Z,5.38
2022-10-12T03:04:11.115Z,4.65
2022-10-12T03:06:38.193Z,4.72
2022-10-12T03:09:05.485Z,4.68
2022-10-12T03:11:32.743Z,6.03
2022-10-12T03:14:00.083Z,5.00
2022-10-12T03:16:27.215Z,4.80
2022-10-12T03:18:54.165Z,4.70
2022-10-12T03:21:21.474Z,4.40
2022-10-12T03:23:48.392Z,4.60
2022-10-12T03:26:15.910Z,4.70
2022-10-12T03:28:42.951Z,4.55
2022-10-12T03:31:10.053Z,4.45
2022-10-12T03:33:37.022Z,4.07
2022-10-12T03:36:04.352Z,3.85
2022-10-12T03:38:31.383Z,4.20
2022-10-12T03:41:01.765Z,4.00
2022-10-12T03:43:31.257Z,3.63
2022-10-12T03:45:58.518Z,4.20
2022-10-12T03:48:25.567Z,4.47
2022-10-12T03:50:53.370Z,4.20
2022-10-12T03:53:21.028Z,4.55
2022-10-12T03:55:48.045Z,4.55
2022-10-12T03:58:15.471Z,4.68
2022-10-12T04:00:42.494Z,4.47
2022-10-12T04:03:09.419Z,4.78
2022-10-12T04:05:36.514Z,4.80
2022-10-12T04:08:03.682Z,4.07
2022-10-12T04:10:30.633Z,5.03
2022-10-12T04:12:57.719Z,4.38
2022-10-12T04:15:24.753Z,4.50
2022-10-12T04:17:51.837Z,4.10
2022-10-12T04:20:18.970Z,4.18
2022-10-12T04:22:45.902Z,5.00
2022-10-12T04:25:12.922Z,4.50
2022-10-12T04:27:40.183Z,3.67
2022-10-12T04:30:08.099Z,4.45
2022-10-12T04:32:35.067Z,4.30
2022-10-12T04:35:01.995Z,4.20
2022-10-12T04:37:28.970Z,4.30
2022-10-12T04:39:56.187Z,4.50
2022-10-12T04:42:23.153Z,4.80
2022-10-12T04:44:50.171Z,4.82
2022-10-12T04:47:17.168Z,5.50
2022-10-12T04:49:44.195Z,5.18
2022-10-12T04:52:11.183Z,4.50
2022-10-12T04:54:38.190Z,4.85
2022-10-12T04:57:05.122Z,4.53
2022-10-12T04:59:32.074Z,4.90
2022-10-12T05:01:59.132Z,4.25
2022-10-12T05:04:26.180Z,4.82
2022-10-12T05:06:53.193Z,4.20
2022-10-12T05:09:20.220Z,4.03
2022-10-12T05:11:47.192Z,4.75
2022-10-12T05:14:14.145Z,4.47
2022-10-12T05:16:41.237Z,4.30
2022-10-12T05:19:08.442Z,3.88
2022-10-12T05:21:35.654Z,4.88
2022-10-12T05:24:02.681Z,4.95
2022-10-12T05:26:29.635Z,5.43
2022-10-12T05:28:56.673Z,4.40
2022-10-12T05:31:23.868Z,4.80
2022-10-12T05:33:50.886Z,4.05
2022-10-12T05:36:17.798Z,5.25
2022-10-12T05:38:44.770Z,5.15
2022-10-12T05:41:11.830Z,4.50
2022-10-12T05:43:38.804Z,4.97
2022-10-12T05:46:05.960Z,4.47
2022-10-12T05:48:33.539Z,3.92
2022-10-12T05:51:00.551Z,4.40
2022-10-12T05:53:27.522Z,3.75
2022-10-12T05:56:00.701Z,4.20
2022-10-12T05:58:30.762Z,4.47
2022-10-12T06:01:09.502Z,4.38
2022-10-12T06:03:36.980Z,4.70
2022-10-12T06:06:06.659Z,4.72
2022-10-12T06:08:34.831Z,4.90
2022-10-12T06:11:01.888Z,4.55
2022-10-12T06:13:28.958Z,5.30
2022-10-12T06:15:56.008Z,5.63
2022-10-12T06:18:23.045Z,4.55
2022-10-12T06:21:04.037Z,4.55
2022-10-12T06:23:39.714Z,4.20
2022-10-12T06:26:06.944Z,5.05
2022-10-12T06:28:34.002Z,4.57
2022-10-12T06:31:01.310Z,5.15
2022-10-12T06:33:28.565Z,5.22
2022-10-12T06:35:56.335Z,5.05
2022-10-12T06:38:23.823Z,5.43
2022-10-12T06:40:50.840Z,5.07
2022-10-12T06:43:17.855Z,4.18
2022-10-12T06:45:44.914Z,4.25
2022-10-12T06:48:14.949Z,5.60
2022-10-12T06:50:46.407Z,6.55
2022-10-12T06:53:13.624Z,5.15
2022-10-12T06:55:40.754Z,4.68
2022-10-12T06:58:07.758Z,4.30
2022-10-12T07:00:35.367Z,4.70
2022-10-12T07:03:02.395Z,3.80
2022-10-12T07:05:29.638Z,3.95
2022-10-12T07:07:56.911Z,4.32
2022-10-12T07:10:25.120Z,5.20
2022-10-12T07:12:52.091Z,6.53
2022-10-12T07:15:19.036Z,5.07
2022-10-12T07:17:46.016Z,4.93
2022-10-12T07:20:13.294Z,5.63
2022-10-12T07:22:40.315Z,5.45
2022-10-12T07:25:07.745Z,4.00
2022-10-12T07:27:34.781Z,4.88
2022-10-12T07:30:02.157Z,4.93
2022-10-12T07:32:29.140Z,4.40
2022-10-12T07:34:56.105Z,3.90
2022-10-12T07:37:23.797Z,4.70
2022-10-12T07:39:50.797Z,4.90
2022-10-12T07:42:19.447Z,4.47
2022-10-12T07:44:46.754Z,4.40
2022-10-12T07:47:13.744Z,3.97
2022-10-12T07:49:40.689Z,4.75
2022-10-12T07:52:07.789Z,4.50
2022-10-12T07:54:34.763Z,4.50
2022-10-12T07:57:01.682Z,3.97
2022-10-12T07:59:28.803Z,4.18
2022-10-12T08:01:55.846Z,3.90
2022-10-12T08:04:22.916Z,3.53
2022-10-12T08:06:49.910Z,4.35
2022-10-12T08:09:16.969Z,4.80
2022-10-12T08:11:44.004Z,5.68
2022-10-12T08:14:17.125Z,4.80
2022-10-12T08:16:45.219Z,4.50
2022-10-12T08:19:13.361Z,4.85
2022-10-12T08:21:41.402Z,4.38
2022-10-12T08:24:09.667Z,7.18
2022-10-12T08:26:36.905Z,5.00
2022-10-12T08:29:06.306Z,4.35
2022-10-12T08:31:33.273Z,5.55
2022-10-12T08:34:00.711Z,4.32
2022-10-12T08:36:28.284Z,4.53
2022-10-12T08:38:55.853Z,4.63
2022-10-12T08:41:43.353Z,4.20
2022-10-12T08:44:21.516Z,4.20
2022-10-12T08:46:49.737Z,4.18
2022-10-12T08:49:25.264Z,4.25
2022-10-12T08:52:04.551Z,4.05
2022-10-12T08:54:39.753Z,4.20
2022-10-12T08:57:15.932Z,3.60
2022-10-12T08:59:42.961Z,3.70
2022-10-12T09:02:28.878Z,4.80
2022-10-12T09:05:08.570Z,4.20
2022-10-12T09:07:38.803Z,4.17
2022-10-12T09:10:51.222Z,3.63
2022-10-12T09:13:48.957Z,4.10
2022-10-12T09:16:26.138Z,4.23
2022-10-12T09:18:58.130Z,4.20
2022-10-12T09:21:29.013Z,4.07
2022-10-12T09:23:57.982Z,3.03
2022-10-12T09:26:36.605Z,3.87
2022-10-12T09:29:26.228Z,3.53
2022-10-12T09:32:27.748Z,3.70
2022-10-12T09:34:55.628Z,3.80
2022-10-12T09:37:29.404Z,4.33
2022-10-12T09:39:57.845Z,3.93
2022-10-12T09:42:24.911Z,4.50
2022-10-12T09:45:03.474Z,3.90
2022-10-12T09:47:33.343Z,4.33
2022-10-12T09:50:05.909Z,3.67
2022-10-12T09:52:35.796Z,3.70
2022-10-12T09:55:05.738Z,4.43
2022-10-12T09:57:39.537Z,3.73
2022-10-12T10:00:30.806Z,3.30
2022-10-12T10:02:59.286Z,3.50
2022-10-12T10:05:27.746Z,3.40
2022-10-12T10:08:19.446Z,3.30
2022-10-12T10:10:58.936Z,3.37
2022-10-12T10:13:31.449Z,2.80
2022-10-12T10:16:08.181Z,3.77
2022-10-12T10:18:38.241Z,3.53
2022-10-12T10:21:09.059Z,3.43
2022-10-12T10:24:06.769Z,3.70
2022-10-12T10:26:56.233Z,3.57
2022-10-12T10:29:35.463Z,3.10
2022-10-12T10:32:30.074Z,2.80
2022-10-12T10:35:13.384Z,3.40
2022-10-12T10:37:56.097Z,4.73
2022-10-12T10:40:24.447Z,3.70
2022-10-12T10:43:06.633Z,3.50
2022-10-12T10:46:04.916Z,3.53
2022-10-12T10:48:51.377Z,2.90
2022-10-12T10:51:20.560Z,4.23
2022-10-12T10:53:49.844Z,3.83
2022-10-12T10:56:21.999Z,5.30
2022-10-12T10:58:57.672Z,3.20
2022-10-12T11:01:39.784Z,4.57
2022-10-12T11:04:15.620Z,2.70
2022-10-12T11:06:51.393Z,3.27
2022-10-12T11:09:30.107Z,2.97
2022-10-12T11:12:20.023Z,6.97
2022-10-12T11:14:51.939Z,3.60
2022-10-12T11:17:27.572Z,3.07
2022-10-12T11:20:19.585Z,4.10
2022-10-12T11:22:55.377Z,3.90
2022-10-12T11:25:29.235Z,4.00
2022-10-12T11:27:56.560Z,2.83
2022-10-12T11:30:26.389Z,3.40
2022-10-12T11:32:54.960Z,2.87
2022-10-12T11:35:36.220Z,2.77
2022-10-12T11:38:14.959Z,2.90
2022-10-12T11:41:13.980Z,2.70
2022-10-12T11:43:55.397Z,3.00
2022-10-12T11:46:34.000Z,2.77
2022-10-12T11:49:23.430Z,2.40
2022-10-12T11:51:54.680Z,3.20
2022-10-12T11:54:37.804Z,2.80
2022-10-12T11:57:15.213Z,3.00
2022-10-12T12:00:00.756Z,2.90
2022-10-12T12:02:45.938Z,3.33
2022-10-12T12:05:17.353Z,2.93
2022-10-12T12:07:56.779Z,2.90
2022-10-12T12:10:27.855Z,2.80
2022-10-12T12:13:18.423Z,2.90
2022-10-12T12:15:48.198Z,3.00
2022-10-12T12:18:21.604Z,2.40
2022-10-12T12:20:48.534Z,3.17
2022-10-12T12:23:26.381Z,3.20
2022-10-12T12:26:18.219Z,2.80
2022-10-12T12:28:48.194Z,2.70
2022-10-12T12:31:24.091Z,3.10
2022-10-12T12:34:12.825Z,2.63
2022-10-12T12:36:45.062Z,2.37
2022-10-12T12:39:32.824Z,2.97
2022-10-12T12:42:06.280Z,3.30
2022-10-12T12:44:40.941Z,2.87
2022-10-12T12:47:32.997Z,3.17
2022-10-12T12:50:00.993Z,3.90
2022-10-12T12:52:39.090Z,2.80
2022-10-12T12:55:20.873Z,2.40
2022-10-12T12:58:13.786Z,2.47
2022-10-12T13:00:49.525Z,2.83
2022-10-12T13:03:30.095Z,3.10
2022-10-12T13:06:09.317Z,3.60
2022-10-12T13:08:49.755Z,3.00
2022-10-12T13:11:34.679Z,3.50
2022-10-12T13:14:13.523Z,2.50
2022-10-12T13:17:30.817Z,3.03
2022-10-12T13:19:35.712Z,3.73
2022-10-12T13:22:06.560Z,2.80
2022-10-12T13:24:55.129Z,2.67
2022-10-12T13:27:34.840Z,3.43
2022-10-12T13:30:11.189Z,2.80
2022-10-12T13:32:41.057Z,2.97
2022-10-12T13:35:18.727Z,2.50
2022-10-12T13:37:59.378Z,2.70
2022-10-12T13:40:41.258Z,3.00
2022-10-12T13:43:43.783Z,2.80
2022-10-12T13:46:41.267Z,2.83
2022-10-12T13:49:21.032Z,3.23
2022-10-12T13:51:54.263Z,2.73
2022-10-12T13:54:39.092Z,4.10
2022-10-12T13:57:39.357Z,2.90
2022-10-12T14:00:11.093Z,5.27
2022-10-12T14:02:38.026Z,2.93
2022-10-12T14:05:15.262Z,3.23
2022-10-12T14:07:44.447Z,3.07
2022-10-12T14:10:36.387Z,3.00
2022-10-12T14:13:05.147Z,3.10
2022-10-12T14:15:38.687Z,2.30
2022-10-12T14:18:34.808Z,3.90
2022-10-12T14:21:10.853Z,3.20
2022-10-12T14:23:46.627Z,4.50
2022-10-12T14:26:24.510Z,2.57
2022-10-12T14:28:51.942Z,3.13
2022-10-12T14:31:19.010Z,3.60
2022-10-12T14:33:46.073Z,2.53
2022-10-12T14:36:33.328Z,3.00
2022-10-12T14:39:13.936Z,3.20
2022-10-12T14:41:51.023Z,2.90
2022-10-12T14:44:19.566Z,3.30
2022-10-12T14:47:07.183Z,3.43
2022-10-12T14:49:44.085Z,2.63
2022-10-12T14:52:33.034Z,2.57
2022-10-12T14:55:00.901Z,3.37
2022-10-12T14:57:29.883Z,2.90
2022-10-12T14:59:57.832Z,2.80
2022-10-12T15:02:27.751Z,3.17
2022-10-12T15:04:56.845Z,2.70
2022-10-12T15:07:32.361Z,4.17
2022-10-12T15:09:59.993Z,2.63
2022-10-12T15:12:30.588Z,3.30
2022-10-12T15:15:00.531Z,3.07
2022-10-12T15:17:27.690Z,2.87
2022-10-12T15:19:54.803Z,2.90
2022-10-12T15:22:24.757Z,2.77
2022-10-12T15:24:54.640Z,2.97
2022-10-12T15:27:22.118Z,3.13
2022-10-12T15:29:49.128Z,2.90
2022-10-12T15:32:17.808Z,2.93
2022-10-12T15:34:45.036Z,3.97
2022-10-12T15:37:12.276Z,4.13
2022-10-12T15:39:39.382Z,4.87
2022-10-12T15:42:06.422Z,5.27
2022-10-12T15:44:41.146Z,4.87
2022-10-12T15:47:10.906Z,5.23
2022-10-12T15:49:38.778Z,4.40
2022-10-12T15:52:09.607Z,3.73
2022-10-12T15:54:36.682Z,4.20
2022-10-12T15:57:03.762Z,4.23
2022-10-12T15:59:30.852Z,3.40
2022-10-12T16:01:58.871Z,3.27
2022-10-12T16:04:25.826Z,3.87
2022-10-12T16:06:52.862Z,3.77
2022-10-12T16:09:19.917Z,4.00
2022-10-12T16:11:46.969Z,4.20
2022-10-12T16:14:15.254Z,4.30
2022-10-12T16:16:42.193Z,4.63
2022-10-12T16:19:09.135Z,5.23
2022-10-12T16:21:36.120Z,4.43
2022-10-12T16:24:03.096Z,4.97
2022-10-12T16:26:30.139Z,5.13
2022-10-12T16:28:57.218Z,5.13
2022-10-12T16:31:24.296Z,4.90
2022-10-12T16:33:51.222Z,5.03
2022-10-12T16:36:18.322Z,5.07
2022-10-12T16:38:45.827Z,4.27
2022-10-12T16:41:15.273Z,4.97
2022-10-12T16:43:42.729Z,4.37
2022-10-12T16:46:10.025Z,5.13
2022-10-12T16:48:37.657Z,5.20
2022-10-12T16:51:12.005Z,4.80
2022-10-12T16:53:42.686Z,5.33
2022-10-12T16:56:09.662Z,5.97
2022-10-12T16:58:36.781Z,6.03
2022-10-12T17:01:14.143Z,4.83
2022-10-12T17:03:41.986Z,5.37
2022-10-12T17:06:11.420Z,5.80
2022-10-12T17:08:39.669Z,5.60
2022-10-12T17:11:09.262Z,5.37
2022-10-12T17:13:37.988Z,5.43
2022-10-12T17:16:33.116Z,4.80
2022-10-12T17:19:00.243Z,5.80
2022-10-12T17:21:28.411Z,5.97
2022-10-12T17:24:00.156Z,6.23
2022-10-12T17:26:27.538Z,6.87
2022-10-12T17:28:55.781Z,6.50
2022-10-12T17:31:23.459Z,6.40
2022-10-12T17:33:50.913Z,5.28
2022-10-12T17:36:20.858Z,7.35
2022-10-12T17:38:49.887Z,6.15
2022-10-12T17:41:17.468Z,6.70
2022-10-12T17:43:44.745Z,6.28
2022-10-12T17:46:12.067Z,6.75
2022-10-12T17:48:40.166Z,6.03
2022-10-12T17:51:10.150Z,8.05
2022-10-12T17:53:37.188Z,10.05
2022-10-12T17:56:05.865Z,9.13
2022-10-12T17:58:34.322Z,12.32
2022-10-12T18:01:12.177Z,13.63
2022-10-12T18:03:42.064Z,15.90
2022-10-12T18:06:16.643Z,12.10
2022-10-12T18:08:45.108Z,12.70
2022-10-12T18:11:12.679Z,11.20
2022-10-12T18:13:40.072Z,9.00
2022-10-12T18:16:11.843Z,8.75
2022-10-12T18:18:39.406Z,7.75
2022-10-12T18:21:08.059Z,8.70
2022-10-12T18:23:35.827Z,7.22
2022-10-12T18:26:06.230Z,6.90
2022-10-12T18:28:34.104Z,6.22
2022-10-12T18:31:02.265Z,7.28
2022-10-12T18:33:30.375Z,6.28
2022-10-12T18:36:06.752Z,6.15
2022-10-12T18:38:35.148Z,6.90
2022-10-12T18:41:06.977Z,7.82
2022-10-12T18:43:35.519Z,8.25
2022-10-12T18:46:11.803Z,7.65
2022-10-12T18:48:39.514Z,7.30
2022-10-12T18:51:29.118Z,6.75
2022-10-12T18:53:58.412Z,7.43
2022-10-12T18:56:26.823Z,7.53
2022-10-12T18:58:54.738Z,8.60
2022-10-12T19:01:25.370Z,7.82
2022-10-12T19:03:56.004Z,9.30
2022-10-12T19:06:26.846Z,9.27
2022-10-12T19:08:56.658Z,8.20
2022-10-12T19:11:26.700Z,8.90
2022-10-12T19:14:02.763Z,8.07
2022-10-12T19:16:31.976Z,9.23
2022-10-12T19:19:20.530Z,8.07
2022-10-12T19:21:50.788Z,7.40
2022-10-12T19:24:19.134Z,8.00
2022-10-12T19:26:46.928Z,7.18
2022-10-12T19:29:15.440Z,7.68
2022-10-12T19:31:48.358Z,6.57
2022-10-12T19:34:18.570Z,6.50
2022-10-12T19:36:46.653Z,6.32
2022-10-12T19:39:20.364Z,6.43
2022-10-12T19:41:48.884Z,6.18
2022-10-12T19:44:16.774Z,5.70
2022-10-12T19:46:47.714Z,6.53
2022-10-12T19:49:17.646Z,5.63
2022-10-12T19:51:46.390Z,5.80
2022-10-12T19:54:17.634Z,6.03
2022-10-12T19:56:45.995Z,6.45
2022-10-12T19:59:14.211Z,5.82
2022-10-12T20:01:41.597Z,4.97
2022-10-12T20:04:12.192Z,5.30
2022-10-12T20:06:41.163Z,6.05
2022-10-12T20:09:10.505Z,6.15
2022-10-12T20:11:38.775Z,5.82
2022-10-12T20:14:06.985Z,5.43
2022-10-12T20:16:35.694Z,6.45
2022-10-12T20:19:04.543Z,5.75
2022-10-12T20:21:31.930Z,6.10
2022-10-12T20:23:58.958Z,6.07
2022-10-12T20:26:27.488Z,5.90
2022-10-12T20:28:54.841Z,6.38
2022-10-12T20:31:27.643Z,6.38
2022-10-12T20:33:56.112Z,6.63
2022-10-12T20:36:26.585Z,5.55
2022-10-12T20:38:54.194Z,6.50
2022-10-12T20:41:22.031Z,6.43
2022-10-12T20:43:49.214Z,5.88
2022-10-12T20:46:17.827Z,6.63
2022-10-12T20:48:46.039Z,6.15
2022-10-12T20:51:21.783Z,6.25
2022-10-12T20:53:50.946Z,7.20
2022-10-12T20:56:17.922Z,7.93
2022-10-12T20:58:45.011Z,8.93
2022-10-12T21:01:14.863Z,7.47
2022-10-12T21:03:42.813Z,7.05
2022-10-12T21:06:17.845Z,8.25
2022-10-12T21:08:50.355Z,8.43
2022-10-12T21:11:17.889Z,8.40
2022-10-12T21:13:46.153Z,7.55
2022-10-12T21:16:14.837Z,7.45
2022-10-12T21:18:42.298Z,7.13
2022-10-12T21:21:18.204Z,7.50
2022-10-12T21:23:57.172Z,6.50
2022-10-12T21:26:26.605Z,5.95
2022-10-12T21:28:54.201Z,5.57
2022-10-12T21:31:21.954Z,6.22
2022-10-12T21:33:48.993Z,6.00
2022-10-12T21:36:24.361Z,5.43
2022-10-12T21:38:51.602Z,6.55
2022-10-12T21:41:21.343Z,5.05
2022-10-12T21:43:49.139Z,5.78
2022-10-12T21:46:19.761Z,5.78
2022-10-12T21:48:47.714Z,5.57
2022-10-12T21:51:14.866Z,6.00
2022-10-12T21:53:42.237Z,6.15
2022-10-12T21:56:16.834Z,6.22
2022-10-12T21:58:44.997Z,6.47
2022-10-12T22:01:15.377Z,6.05
2022-10-12T22:03:43.426Z,7.13
2022-10-12T22:06:16.491Z,6.32
2022-10-12T22:08:44.715Z,5.95
2022-10-12T22:11:13.288Z,6.43
2022-10-12T22:13:40.386Z,6.43
2022-10-12T22:16:10.718Z,7.05
2022-10-12T22:18:38.041Z,6.47
2022-10-12T22:21:07.214Z,5.45
2022-10-12T22:23:34.782Z,5.50
2022-10-12T22:26:03.532Z,4.93
2022-10-12T22:28:31.107Z,5.65
2022-10-12T22:30:58.200Z,5.82
2022-10-12T22:33:25.566Z,4.90
2022-10-12T22:36:01.006Z,5.82
2022-10-12T22:38:28.662Z,5.93
2022-10-12T22:41:01.585Z,6.65
2022-10-12T22:43:30.256Z,6.80
2022-10-12T22:45:57.486Z,7.63
2022-10-12T22:48:25.623Z,6.25
2022-10-12T22:50:53.167Z,6.25
2022-10-12T22:53:21.761Z,5.75
2022-10-12T22:55:48.859Z,6.80
2022-10-12T22:58:16.124Z,6.20
2022-10-12T23:00:43.131Z,6.15
2022-10-12T23:03:10.154Z,5.40
2022-10-12T23:05:37.098Z,5.78
2022-10-12T23:08:04.276Z,5.63
2022-10-12T23:10:32.155Z,6.35
2022-10-12T23:12:59.103Z,6.45
2022-10-12T23:15:26.055Z,6.05
2022-10-12T23:17:54.647Z,6.45
2022-10-12T23:20:21.668Z,6.57
2022-10-12T23:22:48.608Z,5.70
2022-10-12T23:25:15.833Z,5.60
2022-10-12T23:27:42.790Z,5.47
2022-10-12T23:30:10.473Z,6.32
2022-10-12T23:32:37.501Z,5.93
2022-10-12T23:35:04.714Z,5.65
2022-10-12T23:37:31.688Z,6.15
2022-10-12T23:39:58.594Z,6.60
2022-10-12T23:42:25.519Z,4.93
2022-10-12T23:44:52.437Z,6.30
2022-10-12T23:47:19.351Z,6.10
2022-10-12T23:49:46.338Z,6.15
2022-10-12T23:52:13.384Z,5.18
2022-10-12T23:54:40.339Z,5.32
2022-10-12T23:57:22.543Z,6.07
2022-10-12T23:59:54.231Z,5.80
